Aérodrome :
LOGIN :

S'inscrire | Disclaimer

   EN    FR    IT 

 










Légende :    VFR   VFR Marginal   IFR   IFR Intensif   IFR Très Intensif
Visi : 
Plafond : 
>= 8 km
>= 3000ft
5 à 8 km
1000 à 3000 ft
1500m à 5 km
500 à 1000 ft
800 à 1500m
200 à 500 ft
< 800m
< 200 ft
Symboles :   Orages  Brouillard  Fortes neiges  Fortes précipitations  Vent > 20 kt
SIGMETs :   Divers  Orages  Givrage  Turbulence  Onde Orograph.  Cendres Volcan.







- Altitude de l'aérodrome : 157 ft
- Code IATA : LIL
- Voir les cartes d'approche


LFQQ - Lille Lesquin

DERNIER METAR :
  • 210300Z AUTO 17012KT CAVOK 13/09 Q1008 TEMPO 17017G27KT 4000 RA BKN013

METARs EXPIRÉS :
  • 210230Z AUTO 17013KT CAVOK 12/09 Q1009 TEMPO 17017G27KT 4000 RA BKN013
  • 210200Z AUTO 17012KT CAVOK 12/09 Q1009 TEMPO 17017G27KT 4000 RA BKN013
  • 210130Z AUTO 16010KT CAVOK 12/08 Q1009 TEMPO 17017G27KT 4000 RA BKN013
  • 210100Z AUTO 16010KT CAVOK 11/08 Q1010 NOSIG
  • 210030Z AUTO 16010KT CAVOK 11/08 Q1010 NOSIG
  • 210000Z AUTO 15007KT CAVOK 10/07 Q1011 NOSIG

TAF TAF LFQQ
Valide du 21 à 00h jusqu'au 22 à 06h UTC


202300Z 2100/2206 18012KT 9999 SCT040
TEMPO 2103/2107 17017G27KT 4000 RA BKN013
BECMG 2109/2111 21020G33KT
TEMPO 2113/2118 4000 SHRA BKN030CB
PROB40
TEMPO 2113/2118 2000 TSRA BKN020CB
TEMPO 2123/2205 2000 SHRA BKN008 BKN015CB
BECMG 2204/2206 23013KT
ATIS : +33 3 20 16 19 54
Pas de NOTAMs connus pour ce terrain.
1 SIGMET publié pour la FIR Paris (LFFF) :
 
Turbulence forte
LFFF SIGMET 1 VALID 210300/210700 LFPW
LFFF PARIS FIR/UIR SEV TURB FCST WI N4900 W00015 - N5000 W00015 - N5115 E00200 - N5100 E00245 - N5030 E00245 SFC/FL060 MOV E 20KT INTSF=



MET'MAP, la Météo Aéronautique d'un coup d'oeil ! - Copyright ORBIFLY Décembre 2007 - Disclaimer

ORBIFLY MET'MAP TEAM :

Programmation & Développement : Alexandra Zaïnal
Conception & Développement : Baudouin d'Aumeries
Co-Programmation & Développement : Marc-Olivier Méhu
Soutien technique & logistique : Manuel Goepfert

Contact : metmap@orbifly.com




SOURCES & CREDITS :

   NOAA